createdAt,value
2017-11-01T00:00:41.159Z,30.73
2017-11-01T00:03:08.618Z,39.85
2017-11-01T00:05:36.077Z,31.58
2017-11-01T00:08:03.542Z,27.50
2017-11-01T00:10:31.003Z,28.17
2017-11-01T00:12:58.467Z,32.08
2017-11-01T00:15:26.686Z,28.33
2017-11-01T00:17:54.162Z,30.00
2017-11-01T00:20:21.618Z,30.45
2017-11-01T00:22:49.091Z,27.23
2017-11-01T00:25:17.324Z,28.62
2017-11-01T00:27:44.783Z,24.25
2017-11-01T00:30:12.282Z,32.53
2017-11-01T00:32:39.853Z,27.00
2017-11-01T00:35:07.289Z,28.92
2017-11-01T00:37:34.769Z,33.65
2017-11-01T00:40:02.995Z,28.35
2017-11-01T00:42:30.462Z,31.12
2017-11-01T00:44:57.930Z,33.63
2017-11-01T00:47:25.402Z,30.80
2017-11-01T00:49:52.870Z,34.10
2017-11-01T00:52:20.333Z,29.92
2017-11-01T00:54:48.554Z,31.45
2017-11-01T00:57:16.008Z,24.48
2017-11-01T00:59:43.474Z,25.70
2017-11-01T01:02:10.933Z,24.58
2017-11-01T01:04:38.406Z,28.10
2017-11-01T01:07:05.874Z,27.15
2017-11-01T01:09:33.335Z,27.77
2017-11-01T01:12:00.801Z,32.00
2017-11-01T01:14:29.036Z,26.92
2017-11-01T01:16:56.494Z,32.47
2017-11-01T01:19:23.958Z,30.98
2017-11-01T01:21:51.418Z,24.55
2017-11-01T01:24:18.873Z,34.03
2017-11-01T01:26:46.330Z,29.52
2017-11-01T01:29:13.790Z,27.25
2017-11-01T01:31:41.247Z,29.50
2017-11-01T01:34:08.715Z,35.85
2017-11-01T01:36:36.171Z,38.13
2017-11-01T01:39:03.638Z,31.02
2017-11-01T01:41:31.100Z,33.90
2017-11-01T01:43:59.334Z,34.22
2017-11-01T01:46:26.790Z,29.60
2017-11-01T01:48:54.245Z,30.40
2017-11-01T01:51:21.706Z,31.23
2017-11-01T01:53:49.165Z,26.45
2017-11-01T01:56:16.630Z,28.08
2017-11-01T01:58:44.093Z,34.75
2017-11-01T02:01:11.655Z,27.37
2017-11-01T02:03:39.115Z,26.27
2017-11-01T02:06:06.666Z,25.52
2017-11-01T02:08:34.226Z,25.83
2017-11-01T02:11:01.695Z,20.80
2017-11-01T02:13:29.153Z,26.30
2017-11-01T02:15:56.618Z,30.15
2017-11-01T02:18:24.848Z,25.60
2017-11-01T02:20:52.338Z,33.40
2017-11-01T02:23:19.893Z,34.45
2017-11-01T02:25:47.446Z,34.03
2017-11-01T02:28:15.008Z,27.98
2017-11-01T02:30:42.475Z,30.42
2017-11-01T02:33:11.450Z,30.30
2017-11-01T02:35:38.918Z,30.62
2017-11-01T02:38:06.478Z,33.05
2017-11-01T02:40:33.946Z,26.95
2017-11-01T02:43:01.406Z,24.92
2017-11-01T02:45:28.871Z,23.60
2017-11-01T02:47:57.097Z,23.87
2017-11-01T02:50:24.581Z,20.85
2017-11-01T02:52:52.137Z,27.45
2017-11-01T02:55:19.601Z,30.50
2017-11-01T02:57:47.147Z,34.08
2017-11-01T03:00:14.622Z,33.40
2017-11-01T03:02:42.080Z,25.00
2017-11-01T03:05:09.551Z,29.63
2017-11-01T03:07:37.776Z,29.17
2017-11-01T03:10:05.246Z,31.50
2017-11-01T03:12:32.702Z,28.83
2017-11-01T03:15:00.172Z,26.70
2017-11-01T03:17:27.629Z,27.67
2017-11-01T03:19:55.096Z,34.00
2017-11-01T03:22:22.645Z,26.30
2017-11-01T03:24:50.130Z,29.05
2017-11-01T03:27:18.359Z,29.87
2017-11-01T03:29:45.823Z,34.17
2017-11-01T03:32:13.295Z,36.08
2017-11-01T03:34:40.750Z,27.48
2017-11-01T03:37:08.223Z,33.42
2017-11-01T03:39:36.446Z,27.23
2017-11-01T03:42:03.914Z,27.13
2017-11-01T03:44:31.374Z,24.08
2017-11-01T03:46:58.838Z,30.20
2017-11-01T03:49:26.301Z,27.13
2017-11-01T03:51:53.771Z,30.83
2017-11-01T03:54:21.315Z,32.60
2017-11-01T03:56:48.783Z,31.55
2017-11-01T03:59:16.330Z,33.53
2017-11-01T04:01:43.895Z,28.85
2017-11-01T04:04:11.350Z,32.40
2017-11-01T04:06:38.910Z,34.13
2017-11-01T04:09:06.471Z,28.40
2017-11-01T04:11:33.942Z,33.50
2017-11-01T04:14:02.170Z,31.27
2017-11-01T04:16:29.654Z,30.77
2017-11-01T04:19:02.938Z,32.67
2017-11-01T04:21:30.410Z,33.83
2017-11-01T04:23:57.871Z,27.20
2017-11-01T04:26:25.334Z,27.83
2017-11-01T04:28:52.883Z,23.30
2017-11-01T04:31:20.442Z,24.25
2017-11-01T04:33:49.418Z,25.55
2017-11-01T04:36:16.996Z,27.05
2017-11-01T04:38:44.462Z,29.08
2017-11-01T04:41:12.691Z,27.27
2017-11-01T04:43:40.152Z,34.75
2017-11-01T04:46:07.609Z,28.70
2017-11-01T04:48:37.926Z,29.15
2017-11-01T04:51:10.235Z,25.75
2017-11-01T04:53:37.791Z,28.25
2017-11-01T04:56:05.343Z,33.42
2017-11-01T04:58:39.401Z,21.95
2017-11-01T05:01:06.859Z,29.27
2017-11-01T05:03:34.322Z,23.80
2017-11-01T05:06:01.782Z,26.60
2017-11-01T05:08:34.992Z,25.75
2017-11-01T05:11:08.234Z,30.30
2017-11-01T05:13:50.573Z,27.87
2017-11-01T05:16:20.506Z,26.58
2017-11-01T05:18:47.979Z,24.87
2017-11-01T05:21:15.435Z,24.55
2017-11-01T05:23:42.897Z,26.62
2017-11-01T05:26:10.363Z,31.30
2017-11-01T05:28:38.595Z,27.48
2017-11-01T05:31:07.840Z,26.42
2017-11-01T05:33:35.305Z,25.50
2017-11-01T05:36:02.771Z,23.60
2017-11-01T05:38:31.003Z,28.42
2017-11-01T05:40:58.458Z,33.38
2017-11-01T05:43:25.922Z,37.63
2017-11-01T05:45:53.490Z,29.52
2017-11-01T05:48:20.950Z,35.67
2017-11-01T05:50:48.416Z,31.73
2017-11-01T05:53:16.066Z,30.88
2017-11-01T05:55:49.958Z,28.12
2017-11-01T05:58:17.642Z,32.53
2017-11-01T06:00:45.879Z,32.00
2017-11-01T06:03:13.339Z,34.30
2017-11-01T06:05:40.830Z,27.15
2017-11-01T06:08:08.290Z,33.30
2017-11-01T06:10:35.846Z,30.00
2017-11-01T06:13:03.298Z,34.20
2017-11-01T06:15:30.764Z,34.85
2017-11-01T06:17:58.222Z,26.95
2017-11-01T06:20:25.687Z,27.80
2017-11-01T06:22:53.953Z,40.95
2017-11-01T06:25:21.514Z,29.30
2017-11-01T06:27:49.067Z,33.53
2017-11-01T06:30:16.536Z,31.30
2017-11-01T06:32:44.802Z,28.60
2017-11-01T06:35:12.362Z,24.42
2017-11-01T06:37:40.592Z,29.33
2017-11-01T06:40:08.055Z,26.42
2017-11-01T06:42:35.514Z,26.10
2017-11-01T06:45:02.978Z,29.45
2017-11-01T06:47:30.434Z,32.55
2017-11-01T06:49:57.906Z,31.52
2017-11-01T06:52:25.368Z,29.50
2017-11-01T06:54:52.847Z,31.85
2017-11-01T06:57:20.299Z,28.08
2017-11-01T06:59:47.850Z,21.00
2017-11-01T07:02:15.332Z,23.33
2017-11-01T07:04:43.558Z,25.30
2017-11-01T07:07:11.139Z,23.62
2017-11-01T07:09:47.137Z,22.95
2017-11-01T07:12:15.370Z,20.52
2017-11-01T07:14:42.822Z,18.98
2017-11-01T07:17:10.287Z,26.30
2017-11-01T07:19:38.595Z,25.52
2017-11-01T07:22:06.115Z,23.67
2017-11-01T07:24:33.680Z,27.15
2017-11-01T07:27:01.244Z,36.28
2017-11-01T07:29:28.694Z,27.02
2017-11-01T07:31:56.356Z,29.08
2017-11-01T07:34:23.802Z,28.73
2017-11-01T07:36:51.272Z,26.87
2017-11-01T07:39:18.726Z,29.30
2017-11-01T07:41:46.192Z,22.05
2017-11-01T07:44:13.646Z,27.60
2017-11-01T07:46:41.120Z,20.92
2017-11-01T07:49:09.340Z,22.33
2017-11-01T07:51:36.807Z,16.27
2017-11-01T07:54:04.268Z,17.73
2017-11-01T07:56:31.848Z,16.77
2017-11-01T07:58:59.303Z,14.15
2017-11-01T08:01:26.774Z,13.32
2017-11-01T08:03:55.007Z,13.07
2017-11-01T08:06:22.470Z,16.00
2017-11-01T08:08:49.924Z,16.65
2017-11-01T08:11:17.390Z,15.70
2017-11-01T08:13:44.963Z,18.12
2017-11-01T08:16:12.431Z,16.67
2017-11-01T08:18:39.886Z,15.50
2017-11-01T08:21:07.430Z,14.52
2017-11-01T08:23:34.895Z,20.67
2017-11-01T08:26:02.352Z,16.00
2017-11-01T08:28:29.907Z,14.43
2017-11-01T08:30:57.371Z,18.62
2017-11-01T08:33:24.923Z,11.50
2017-11-01T08:35:52.392Z,16.33
2017-11-01T08:38:19.859Z,16.65
2017-11-01T08:40:48.078Z,17.33
2017-11-01T08:43:15.551Z,17.95
2017-11-01T08:45:43.010Z,19.75
2017-11-01T08:48:10.482Z,15.50
2017-11-01T08:50:37.938Z,14.52
2017-11-01T08:53:05.408Z,16.85
2017-11-01T08:55:32.859Z,14.50
2017-11-01T08:58:00.334Z,16.27
2017-11-01T09:00:28.558Z,14.02
2017-11-01T09:02:56.030Z,11.98
2017-11-01T09:05:23.501Z,21.50
2017-11-01T09:07:51.737Z,26.25
2017-11-01T09:10:19.199Z,23.15
2017-11-01T09:12:46.666Z,20.10
2017-11-01T09:15:14.126Z,17.90
2017-11-01T09:17:41.586Z,18.35
2017-11-01T09:20:09.162Z,20.62
2017-11-01T09:22:36.618Z,20.95
2017-11-01T09:25:04.086Z,20.42
2017-11-01T09:27:32.315Z,15.35
2017-11-01T09:29:59.784Z,17.80
2017-11-01T09:32:27.255Z,20.37
2017-11-01T09:34:54.718Z,19.00
2017-11-01T09:37:22.188Z,15.95
2017-11-01T09:39:49.734Z,15.57
2017-11-01T09:42:17.195Z,15.77
2017-11-01T09:44:44.746Z,15.13
2017-11-01T09:47:12.307Z,14.32
2017-11-01T09:49:39.766Z,16.20
2017-11-01T09:52:08.734Z,14.38
2017-11-01T09:54:36.207Z,19.90
2017-11-01T09:57:03.674Z,13.65
2017-11-01T09:59:31.913Z,16.40
2017-11-01T10:01:59.373Z,15.20
2017-11-01T10:04:27.059Z,15.80
2017-11-01T10:06:54.523Z,15.90
2017-11-01T10:09:21.994Z,14.02
2017-11-01T10:11:49.446Z,15.10
2017-11-01T10:14:16.982Z,16.48
2017-11-01T10:16:44.449Z,14.18
2017-11-01T10:19:12.014Z,15.43
2017-11-01T10:21:39.483Z,15.32
2017-11-01T10:24:06.950Z,16.62
2017-11-01T10:26:35.167Z,14.90
2017-11-01T10:29:02.670Z,17.35
2017-11-01T10:31:30.129Z,13.77
2017-11-01T10:33:58.356Z,12.70
2017-11-01T10:36:25.826Z,15.48
2017-11-01T10:38:53.287Z,17.85
2017-11-01T10:41:20.859Z,15.02
2017-11-01T10:43:49.854Z,15.10
2017-11-01T10:46:17.327Z,13.32
2017-11-01T10:48:45.555Z,27.60
2017-11-01T10:51:13.019Z,16.85
2017-11-01T10:53:40.490Z,15.33
2017-11-01T10:56:07.961Z,16.83
2017-11-01T10:58:35.427Z,14.18
2017-11-01T11:01:02.890Z,12.03
2017-11-01T11:03:31.132Z,15.35
2017-11-01T11:05:58.590Z,15.03
2017-11-01T11:08:26.050Z,11.73
2017-11-01T11:10:53.529Z,13.60
2017-11-01T11:13:20.985Z,13.90
2017-11-01T11:15:48.455Z,13.53
2017-11-01T11:18:16.689Z,14.10
2017-11-01T11:20:44.166Z,11.87
2017-11-01T11:23:11.630Z,10.60
2017-11-01T11:25:39.870Z,14.80
2017-11-01T11:28:07.335Z,10.18
2017-11-01T11:30:34.815Z,15.30
2017-11-01T11:33:02.285Z,13.80
2017-11-01T11:35:30.523Z,12.32
2017-11-01T11:37:57.995Z,23.85
2017-11-01T11:40:25.467Z,18.08
2017-11-01T11:42:52.927Z,14.00
2017-11-01T11:45:21.187Z,11.18
2017-11-01T11:47:48.658Z,11.80
2017-11-01T11:50:16.895Z,12.53
2017-11-01T11:52:44.371Z,14.10
2017-11-01T11:55:11.815Z,8.50
2017-11-01T11:57:39.295Z,12.13
2017-11-01T12:00:06.750Z,9.20
2017-11-01T12:02:34.218Z,12.23
2017-11-01T12:05:01.682Z,13.57
2017-11-01T12:07:29.936Z,11.13
2017-11-01T12:09:57.488Z,13.70
2017-11-01T12:12:24.962Z,15.77
2017-11-01T12:14:52.423Z,15.20
2017-11-01T12:17:19.886Z,11.47
2017-11-01T12:19:48.110Z,11.87
2017-11-01T12:22:15.599Z,12.53
2017-11-01T12:24:43.055Z,13.90
2017-11-01T12:27:10.511Z,11.10
2017-11-01T12:29:37.977Z,12.47
2017-11-01T12:32:05.525Z,13.97
2017-11-01T12:34:34.507Z,12.88
2017-11-01T12:37:02.094Z,13.90
2017-11-01T12:39:29.561Z,14.00
2017-11-01T12:41:57.784Z,13.67
2017-11-01T12:46:59.879Z,14.10
2017-11-01T12:49:27.449Z,12.10
2017-11-01T12:51:54.906Z,10.57
2017-11-01T12:54:23.141Z,12.90
2017-11-01T12:56:50.642Z,10.30
2017-11-01T12:59:18.106Z,10.37
2017-11-01T13:01:45.558Z,12.90
2017-11-01T13:04:13.023Z,9.30
2017-11-01T13:06:40.479Z,10.50
2017-11-01T13:09:08.743Z,10.43
2017-11-01T13:11:36.299Z,9.77
2017-11-01T13:14:03.774Z,10.10
2017-11-01T13:16:31.326Z,10.03
2017-11-01T13:18:58.774Z,9.47
2017-11-01T13:21:26.232Z,8.87
2017-11-01T13:23:55.203Z,15.07
2017-11-01T13:26:22.670Z,7.50
2017-11-01T13:28:50.236Z,7.73
2017-11-01T13:31:17.693Z,9.10
2017-11-01T13:33:45.148Z,10.77
2017-11-01T13:36:12.607Z,7.20
2017-11-01T13:38:40.066Z,9.47
2017-11-01T13:41:07.527Z,6.23
2017-11-01T13:43:34.979Z,8.33
2017-11-01T13:46:03.261Z,6.50
2017-11-01T13:48:30.706Z,6.80
2017-11-01T13:50:58.178Z,7.63
2017-11-01T13:53:25.634Z,7.93
2017-11-01T13:55:53.090Z,6.90
2017-11-01T13:58:20.638Z,7.93
2017-11-01T14:00:48.107Z,9.50
2017-11-01T14:03:15.554Z,6.70
2017-11-01T14:05:43.034Z,7.83
2017-11-01T14:08:11.287Z,5.70
2017-11-01T14:10:38.756Z,7.70
2017-11-01T14:13:06.307Z,7.50
2017-11-01T14:15:33.762Z,8.50
2017-11-01T14:18:01.218Z,5.50
2017-11-01T14:20:28.680Z,9.30
2017-11-01T14:22:56.139Z,6.33
2017-11-01T14:25:23.594Z,5.30
2017-11-01T14:27:51.142Z,6.60
2017-11-01T14:30:18.607Z,5.10
2017-11-01T14:32:46.070Z,4.67
2017-11-01T14:35:14.293Z,4.93
2017-11-01T14:37:41.763Z,5.00
2017-11-01T14:40:09.221Z,7.00
2017-11-01T14:42:36.891Z,6.17
2017-11-01T14:45:04.343Z,6.93
2017-11-01T14:47:31.806Z,3.13
2017-11-01T14:49:59.377Z,3.50
2017-11-01T14:52:26.846Z,3.87
2017-11-01T14:54:54.304Z,4.90
2017-11-01T14:57:21.942Z,8.63
2017-11-01T14:59:49.400Z,3.90
2017-11-01T15:02:16.965Z,5.70
2017-11-01T15:04:44.415Z,6.50
2017-11-01T15:07:11.874Z,7.83
2017-11-01T15:09:39.333Z,3.30
2017-11-01T15:12:06.890Z,4.60
2017-11-01T15:14:34.368Z,3.50
2017-11-01T15:17:01.835Z,6.43
2017-11-01T15:19:30.054Z,5.00
2017-11-01T15:21:57.542Z,8.00
2017-11-01T15:24:25.011Z,10.20
2017-11-01T15:26:52.460Z,7.90
2017-11-01T15:29:19.926Z,4.70
2017-11-01T15:31:47.380Z,5.40
2017-11-01T15:34:14.843Z,6.50
2017-11-01T15:36:43.071Z,8.87
2017-11-01T15:39:10.539Z,6.73
2017-11-01T15:41:38.013Z,9.30
2017-11-01T15:44:05.486Z,10.67
2017-11-01T15:46:32.960Z,7.67
2017-11-01T15:49:00.407Z,8.77
2017-11-01T15:51:28.631Z,7.63
2017-11-01T15:53:56.098Z,13.30
2017-11-01T15:56:23.550Z,11.93
2017-11-01T15:58:51.015Z,13.90
2017-11-01T16:01:18.478Z,10.05
2017-11-01T16:03:45.935Z,9.43
2017-11-01T16:06:13.414Z,13.90
2017-11-01T16:08:40.866Z,19.83
2017-11-01T16:11:08.335Z,15.73
2017-11-01T16:13:36.574Z,13.70
2017-11-01T16:16:04.046Z,12.17
2017-11-01T16:18:31.702Z,13.37
2017-11-01T16:20:59.161Z,11.23
2017-11-01T16:23:26.690Z,11.10
2017-11-01T16:25:54.142Z,9.57
2017-11-01T16:28:21.636Z,10.60
2017-11-01T16:30:49.090Z,11.37
2017-11-01T16:33:16.550Z,10.30
2017-11-01T16:35:44.019Z,11.45
2017-11-01T16:38:12.244Z,9.43
2017-11-01T16:40:39.711Z,14.40
2017-11-01T16:43:07.783Z,14.77
2017-11-01T16:45:35.250Z,15.77
2017-11-01T16:48:02.819Z,12.90
2017-11-01T16:50:30.286Z,11.45
2017-11-01T16:52:57.737Z,14.35
2017-11-01T16:55:25.208Z,9.65
2017-11-01T16:57:52.665Z,11.20
2017-11-01T17:00:20.974Z,14.27
2017-11-01T17:02:48.434Z,13.38
2017-11-01T17:05:15.906Z,13.23
2017-11-01T17:07:43.388Z,14.65
2017-11-01T17:10:10.858Z,14.25
2017-11-01T17:12:38.324Z,15.73
2017-11-01T17:15:06.554Z,14.27
2017-11-01T17:17:34.018Z,11.98
2017-11-01T17:20:01.489Z,12.40
2017-11-01T17:22:29.058Z,15.40
2017-11-01T17:24:56.613Z,13.62
2017-11-01T17:27:24.100Z,15.20
2017-11-01T17:29:52.332Z,19.08
2017-11-01T17:32:19.800Z,10.38
2017-11-01T17:34:47.266Z,10.50
2017-11-01T17:37:14.734Z,9.40
2017-11-01T17:39:42.182Z,12.27
2017-11-01T17:42:09.739Z,10.57
2017-11-01T17:44:37.202Z,14.15
2017-11-01T17:47:04.671Z,15.83
2017-11-01T17:49:32.922Z,11.65
2017-11-01T17:52:00.401Z,16.13
2017-11-01T17:54:27.836Z,15.80
2017-11-01T17:56:55.306Z,17.80
2017-11-01T17:59:22.775Z,16.87
2017-11-01T18:01:51.006Z,19.27
2017-11-01T18:04:18.474Z,16.52
2017-11-01T18:06:45.942Z,22.55
2017-11-01T18:09:13.418Z,26.87
2017-11-01T18:11:41.662Z,26.00
2017-11-01T18:14:09.110Z,28.08
2017-11-01T18:16:36.591Z,23.15
2017-11-01T18:19:04.144Z,19.67
2017-11-01T18:21:31.651Z,17.95
2017-11-01T18:23:59.120Z,22.25
2017-11-01T18:26:26.620Z,23.00
2017-11-01T18:28:54.178Z,20.70
2017-11-01T18:31:21.702Z,18.98
2017-11-01T18:33:49.194Z,22.40
2017-11-01T18:36:16.663Z,19.02
2017-11-01T18:38:44.118Z,18.80
2017-11-01T18:41:12.403Z,21.75
2017-11-01T18:43:40.654Z,19.60
2017-11-01T18:46:08.122Z,22.45
2017-11-01T18:48:35.582Z,20.00
2017-11-01T18:51:03.038Z,17.77
2017-11-01T18:53:30.587Z,20.23
2017-11-01T18:55:58.042Z,20.17
2017-11-01T18:58:25.513Z,20.40
2017-11-01T19:00:52.979Z,27.80
2017-11-01T19:03:21.217Z,21.02
2017-11-01T19:05:49.658Z,19.35
2017-11-01T19:08:17.177Z,14.50
2017-11-01T19:10:44.634Z,15.70
2017-11-01T19:13:12.103Z,25.60
2017-11-01T19:15:40.357Z,33.15
2017-11-01T19:18:07.835Z,27.70
2017-11-01T19:20:35.283Z,21.73
2017-11-01T19:23:02.870Z,19.42
2017-11-01T19:25:30.339Z,21.65
2017-11-01T19:27:57.827Z,21.40
2017-11-01T19:30:25.293Z,21.58
2017-11-01T19:32:52.768Z,21.00
2017-11-01T19:35:20.331Z,19.55
2017-11-01T19:37:48.558Z,20.33
2017-11-01T19:40:16.068Z,21.40
2017-11-01T19:42:44.295Z,23.12
2017-11-01T19:45:11.771Z,19.25
2017-11-01T19:47:39.234Z,18.05
2017-11-01T19:50:06.702Z,14.20
2017-11-01T19:52:34.254Z,18.05
2017-11-01T19:55:01.728Z,17.83
2017-11-01T19:57:29.181Z,18.50
2017-11-01T19:59:56.651Z,43.25
2017-11-01T20:02:24.890Z,48.75
2017-11-01T20:04:52.355Z,29.67
2017-11-01T20:07:19.819Z,28.00
2017-11-01T20:09:47.292Z,29.02
2017-11-01T20:12:15.518Z,28.15
2017-11-01T20:14:42.990Z,25.27
2017-11-01T20:17:10.456Z,29.92
2017-11-01T20:19:37.922Z,29.98
2017-11-01T20:22:05.379Z,30.15
2017-11-01T20:24:32.860Z,26.58
2017-11-01T20:27:01.090Z,27.05
2017-11-01T20:29:28.543Z,19.25
2017-11-01T20:31:56.013Z,19.27
2017-11-01T20:34:23.577Z,17.15
2017-11-01T20:36:51.040Z,21.67
2017-11-01T20:39:18.507Z,26.02
2017-11-01T20:41:45.971Z,21.02
2017-11-01T20:44:14.197Z,22.20
2017-11-01T20:46:41.667Z,56.92
2017-11-01T20:49:09.126Z,34.08
2017-11-01T20:51:36.591Z,22.90
2017-11-01T20:54:04.054Z,35.83
2017-11-01T20:56:31.523Z,26.70
2017-11-01T20:58:58.986Z,21.20
2017-11-01T21:01:27.212Z,17.27
2017-11-01T21:03:54.669Z,20.88
2017-11-01T21:06:22.139Z,24.65
2017-11-01T21:08:49.614Z,24.25
2017-11-01T21:11:17.085Z,26.40
2017-11-01T21:13:44.538Z,23.60
2017-11-01T21:16:12.003Z,19.27
2017-11-01T21:18:40.218Z,29.83
2017-11-01T21:21:07.682Z,28.12
2017-11-01T21:23:35.134Z,29.95
2017-11-01T21:26:02.607Z,24.65
2017-11-01T21:28:30.071Z,26.12
2017-11-01T21:30:57.550Z,28.87
2017-11-01T21:33:25.003Z,24.08
2017-11-01T21:35:52.463Z,28.98
2017-11-01T21:38:19.927Z,28.55
2017-11-01T21:40:47.477Z,24.35
2017-11-01T21:43:14.938Z,29.70
2017-11-01T21:45:42.404Z,27.65
2017-11-01T21:48:09.951Z,29.77
2017-11-01T21:50:37.404Z,21.45
2017-11-01T21:53:04.870Z,25.58
2017-11-01T21:55:32.423Z,29.37
2017-11-01T21:57:59.890Z,29.70
2017-11-01T22:02:36.220Z,24.52
2017-11-01T22:05:03.682Z,27.77
2017-11-01T22:07:31.146Z,20.98
2017-11-01T22:09:58.611Z,21.45
2017-11-01T22:12:26.078Z,25.08
2017-11-01T22:14:53.651Z,30.45
2017-11-01T22:17:21.880Z,24.33
2017-11-01T22:19:49.338Z,20.77
2017-11-01T22:22:17.030Z,20.30
2017-11-01T22:24:44.507Z,24.10
2017-11-01T22:27:11.958Z,22.95
2017-11-01T22:29:40.190Z,19.23
2017-11-01T22:32:07.651Z,21.45
2017-11-01T22:34:35.110Z,18.60
2017-11-01T22:37:02.887Z,26.17
2017-11-01T22:39:30.351Z,20.52
2017-11-01T22:41:58.579Z,17.87
2017-11-01T22:44:26.042Z,18.45
2017-11-01T22:46:53.495Z,18.73
2017-11-01T22:49:21.002Z,21.40
2017-11-01T22:51:48.559Z,24.02
2017-11-01T22:54:16.022Z,20.75
2017-11-01T22:56:43.479Z,18.10
2017-11-01T22:59:10.946Z,23.42
2017-11-01T23:01:39.206Z,23.33
2017-11-01T23:04:06.674Z,22.27
2017-11-01T23:06:34.134Z,20.60
2017-11-01T23:09:01.807Z,19.70
2017-11-01T23:11:29.246Z,25.52
2017-11-01T23:13:56.806Z,22.60
2017-11-01T23:16:24.366Z,23.73
2017-11-01T23:18:51.836Z,19.70
2017-11-01T23:21:20.050Z,18.45
2017-11-01T23:23:47.511Z,19.20
2017-11-01T23:26:15.008Z,21.35
2017-11-01T23:28:42.555Z,19.83
2017-11-01T23:31:10.114Z,20.12
2017-11-01T23:33:37.678Z,21.92
2017-11-01T23:36:05.138Z,25.62
2017-11-01T23:38:32.606Z,22.62
2017-11-01T23:41:00.155Z,24.48
2017-11-01T23:43:27.624Z,27.60
2017-11-01T23:45:55.093Z,24.33
2017-11-01T23:48:23.310Z,23.80
2017-11-01T23:50:50.776Z,30.88
2017-11-01T23:53:18.255Z,26.77
2017-11-01T23:55:45.715Z,25.35
2017-11-01T23:58:14.673Z,23.35
